Time;durP1;ratioP1;P1;durP2;ratioP2;P2;SDS_P1;SDS_P2;PMS_P1;PMS_P2;Temp;Humidity;BMP_temperature;BMP_pressure;BME280_temperature;BME280_humidity;BME280_pressure;Samples;Min_cycle;Max_cycle;Signal;HPM_P1;HPM_P2
2021/04/22 00:02:01;;;;;;;;;;;6.50;96.30;;;;;;5016936;28;19921;-67
2021/04/22 00:04:26;;;;;;;;;;;6.50;96.40;;;;;;5017630;28;19925;-68
2021/04/22 00:06:52;;;;;;;;;;;6.60;96.40;;;;;;5015840;28;20001;-66
2021/04/22 00:09:18;;;;;;;;;;;6.60;96.50;;;;;;5023184;28;20368;-67
2021/04/22 00:11:44;;;;;;;;;;;6.70;96.50;;;;;;5000490;28;19956;-67
2021/04/22 00:14:09;;;;;;;;;;;6.70;96.50;;;;;;5018200;28;19960;-67
2021/04/22 00:16:35;;;;;;;;;;;6.80;96.60;;;;;;5017474;28;19984;-67
2021/04/22 00:19:01;;;;;;;;;;;6.80;96.50;;;;;;5021221;28;19995;-67
2021/04/22 00:21:26;;;;;;;;;;;6.80;96.40;;;;;;5019388;28;19921;-68
2021/04/22 00:23:52;;;;;;;;;;;6.70;96.40;;;;;;5018207;28;20258;-67
2021/04/22 00:26:17;;;;;;;;;;;6.60;96.40;;;;;;5022112;28;19940;-68
2021/04/22 00:28:43;;;;;;;;;;;6.60;96.40;;;;;;5018957;28;19976;-67
2021/04/22 00:31:08;;;;;;;;;;;6.60;96.40;;;;;;5023151;28;19940;-67
2021/04/22 00:33:34;;;;;;;;;;;6.50;96.40;;;;;;5014471;28;20374;-66
2021/04/22 00:36:00;;;;;;;;;;;6.50;96.30;;;;;;5018543;28;20348;-66
2021/04/22 00:38:26;;;;;;;;;;;6.40;96.30;;;;;;5020216;28;20007;-67
2021/04/22 00:40:51;;;;;;;;;;;6.40;96.70;;;;;;5022618;28;19913;-67
2021/04/22 00:43:18;;;;;;;;;;;6.40;96.70;;;;;;5019717;28;19932;-67
2021/04/22 00:45:44;;;;;;;;;;;6.40;96.60;;;;;;5021390;28;20012;-67
2021/04/22 00:48:11;;;;;;;;;;;6.30;96.70;;;;;;5018636;28;20267;-68
2021/04/22 00:50:37;;;;;;;;;;;6.20;96.50;;;;;;5018074;28;19914;-68
2021/04/22 00:53:04;;;;;;;;;;;6.10;96.20;;;;;;5019257;28;19914;-68
2021/04/22 00:55:30;;;;;;;;;;;6.00;96.30;;;;;;5028260;28;19929;-67
2021/04/22 00:57:59;;;;;;;;;;;5.90;96.40;;;;;;5024712;28;19921;-68
2021/04/22 01:00:27;;;;;;;;;;;5.80;96.50;;;;;;5023240;28;19923;-67
2021/04/22 01:02:52;;;;;;;;;;;5.80;96.70;;;;;;5021427;28;20023;-68
2021/04/22 01:05:19;;;;;;;;;;;5.80;96.70;;;;;;5024809;28;19921;-67
2021/04/22 01:07:45;;;;;;;;;;;5.80;96.70;;;;;;5018165;28;19948;-67
2021/04/22 01:10:13;;;;;;;;;;;5.70;96.70;;;;;;5022238;28;19922;-67
2021/04/22 01:12:38;;;;;;;;;;;5.50;96.60;;;;;;5021634;28;19922;-68
2021/04/22 01:15:08;;;;;;;;;;;5.50;96.60;;;;;;5021312;28;19917;-67
2021/04/22 01:17:34;;;;;;;;;;;5.50;96.70;;;;;;5025436;28;19913;-68
2021/04/22 01:19:59;;;;;;;;;;;5.50;96.70;;;;;;5021810;28;20349;-66
2021/04/22 01:22:28;;;;;;;;;;;5.40;96.80;;;;;;5028655;28;19945;-66
2021/04/22 01:24:54;;;;;;;;;;;5.40;96.70;;;;;;5035703;28;19960;-67
2021/04/22 01:27:22;;;;;;;;;;;5.30;96.90;;;;;;5037596;28;19936;-66
2021/04/22 01:29:47;;;;;;;;;;;5.20;96.70;;;;;;5033878;28;19995;-68
2021/04/22 01:32:13;;;;;;;;;;;5.20;96.50;;;;;;5026222;28;20012;-67
2021/04/22 01:34:38;;;;;;;;;;;5.10;96.60;;;;;;5030586;28;19913;-68
2021/04/22 01:37:04;;;;;;;;;;;5.10;96.70;;;;;;5013701;28;19922;-67
2021/04/22 01:39:30;;;;;;;;;;;5.10;96.70;;;;;;5022448;28;19924;-66
2021/04/22 01:41:55;;;;;;;;;;;5.20;96.80;;;;;;5022920;28;19948;-68
2021/04/22 01:44:21;;;;;;;;;;;5.20;96.90;;;;;;5022332;28;19933;-67
2021/04/22 01:46:46;;;;;;;;;;;5.20;96.90;;;;;;5020576;28;19975;-67
2021/04/22 01:49:12;;;;;;;;;;;5.10;96.90;;;;;;5025139;28;19914;-68
2021/04/22 01:51:37;;;;;;;;;;;5.30;97.00;;;;;;5021858;28;19932;-66
2021/04/22 01:54:03;;;;;;;;;;;5.30;96.90;;;;;;5018351;28;19925;-69
2021/04/22 01:56:28;;;;;;;;;;;5.10;96.70;;;;;;5022360;28;20244;-68
2021/04/22 01:58:54;;;;;;;;;;;5.00;96.70;;;;;;5004168;28;19926;-68
2021/04/22 02:01:20;;;;;;;;;;;4.80;96.70;;;;;;5008612;28;19967;-68
2021/04/22 02:03:45;;;;;;;;;;;4.80;96.60;;;;;;5013629;28;19964;-69
2021/04/22 02:06:11;;;;;;;;;;;4.80;96.80;;;;;;5015259;28;19918;-67
2021/04/22 02:08:36;;;;;;;;;;;4.90;96.80;;;;;;5015005;28;20246;-69
2021/04/22 02:11:03;;;;;;;;;;;4.90;96.80;;;;;;5020718;28;19956;-68
2021/04/22 02:13:28;;;;;;;;;;;4.90;96.90;;;;;;5009997;28;19932;-67
2021/04/22 02:15:54;;;;;;;;;;;4.90;96.80;;;;;;5015378;28;19917;-69
2021/04/22 02:18:20;;;;;;;;;;;4.80;96.80;;;;;;5018349;28;19996;-69
2021/04/22 02:20:47;;;;;;;;;;;4.80;96.80;;;;;;5013980;28;19925;-69
2021/04/22 02:23:13;;;;;;;;;;;4.80;96.90;;;;;;5009940;28;19980;-68
2021/04/22 02:25:40;;;;;;;;;;;4.70;96.90;;;;;;5014306;28;19975;-69
2021/04/22 02:28:06;;;;;;;;;;;4.50;96.90;;;;;;5014923;28;19917;-69
2021/04/22 02:30:32;;;;;;;;;;;4.30;96.60;;;;;;5010000;28;19921;-69
2021/04/22 02:32:59;;;;;;;;;;;4.20;96.70;;;;;;5017116;28;19926;-69
2021/04/22 02:35:25;;;;;;;;;;;4.00;96.90;;;;;;5011583;28;19913;-68
2021/04/22 02:37:51;;;;;;;;;;;3.90;96.60;;;;;;5006693;28;19921;-68
2021/04/22 02:40:17;;;;;;;;;;;3.80;96.90;;;;;;5017874;28;20432;-67
2021/04/22 02:42:43;;;;;;;;;;;3.80;96.70;;;;;;5017704;28;19924;-67
2021/04/22 02:45:10;;;;;;;;;;;3.90;96.60;;;;;;5014773;28;19944;-69
2021/04/22 02:47:36;;;;;;;;;;;4.10;96.80;;;;;;4996579;28;19932;-68
2021/04/22 02:50:04;;;;;;;;;;;4.20;97.00;;;;;;5013597;28;19922;-68
2021/04/22 02:52:29;;;;;;;;;;;4.30;97.10;;;;;;5013720;28;20228;-68
2021/04/22 02:54:55;;;;;;;;;;;4.30;97.00;;;;;;5020348;28;19929;-68
2021/04/22 02:57:20;;;;;;;;;;;4.30;97.00;;;;;;4998584;28;19924;-69
2021/04/22 02:59:46;;;;;;;;;;;4.30;97.00;;;;;;5017077;28;19913;-68
2021/04/22 03:02:14;;;;;;;;;;;4.50;97.20;;;;;;5000702;28;19917;-68
2021/04/22 03:04:40;;;;;;;;;;;4.60;97.20;;;;;;5018107;28;19914;-68
2021/04/22 03:07:05;;;;;;;;;;;4.70;97.10;;;;;;5015081;28;19917;-68
2021/04/22 03:09:34;;;;;;;;;;;4.80;97.20;;;;;;5020675;28;19917;-68
2021/04/22 03:11:59;;;;;;;;;;;4.90;97.20;;;;;;5019551;28;19913;-69
2021/04/22 03:14:25;;;;;;;;;;;5.00;97.20;;;;;;5022858;28;19967;-68
2021/04/22 03:16:50;;;;;;;;;;;5.20;97.20;;;;;;5016615;28;19975;-68
2021/04/22 03:19:16;;;;;;;;;;;5.20;97.20;;;;;;5017873;28;19932;-68
2021/04/22 03:21:41;;;;;;;;;;;5.10;97.00;;;;;;4999595;28;19964;-69
2021/04/22 03:24:07;;;;;;;;;;;5.10;97.00;;;;;;5015452;28;20409;-68
2021/04/22 03:26:33;;;;;;;;;;;5.00;97.00;;;;;;5020472;28;19967;-69
2021/04/22 03:28:58;;;;;;;;;;;5.10;96.90;;;;;;5015909;28;19921;-68
2021/04/22 03:31:25;;;;;;;;;;;5.20;97.00;;;;;;5016737;28;19928;-67
2021/04/22 03:33:50;;;;;;;;;;;5.30;97.10;;;;;;5019559;28;19917;-66
2021/04/22 03:36:16;;;;;;;;;;;5.40;97.20;;;;;;5016670;28;19921;-67
2021/04/22 03:38:41;;;;;;;;;;;5.50;97.00;;;;;;5015451;28;19972;-67
2021/04/22 03:41:07;;;;;;;;;;;5.60;97.10;;;;;;5014557;28;19913;-68
2021/04/22 03:43:32;;;;;;;;;;;5.70;97.20;;;;;;5014201;28;19921;-68
2021/04/22 03:45:58;;;;;;;;;;;5.60;96.90;;;;;;5018203;28;19913;-66
2021/04/22 03:48:23;;;;;;;;;;;5.40;96.90;;;;;;5016347;28;19913;-66
2021/04/22 03:50:49;;;;;;;;;;;5.30;96.80;;;;;;5001752;28;19928;-68
2021/04/22 03:53:14;;;;;;;;;;;5.20;96.80;;;;;;5016375;28;19928;-67
2021/04/22 03:55:40;;;;;;;;;;;5.10;96.70;;;;;;5020075;28;19913;-68
2021/04/22 03:58:08;;;;;;;;;;;5.10;96.90;;;;;;5016726;28;19922;-68
2021/04/22 04:00:34;;;;;;;;;;;5.10;96.80;;;;;;5019308;28;20012;-69
2021/04/22 04:02:59;;;;;;;;;;;5.10;97.00;;;;;;5017636;28;19913;-67
2021/04/22 04:05:25;;;;;;;;;;;5.20;97.00;;;;;;4997698;28;19921;-67
2021/04/22 04:07:52;;;;;;;;;;;5.20;97.00;;;;;;5013486;28;20293;-67
2021/04/22 04:10:20;;;;;;;;;;;5.20;96.90;;;;;;5019500;28;20223;-69
2021/04/22 04:12:45;;;;;;;;;;;5.20;97.00;;;;;;5018773;28;19934;-68
2021/04/22 04:15:11;;;;;;;;;;;5.30;97.00;;;;;;5012828;28;19913;-68
2021/04/22 04:17:37;;;;;;;;;;;5.30;97.00;;;;;;5014414;28;19921;-68
2021/04/22 04:20:07;;;;;;;;;;;5.30;97.00;;;;;;5014830;28;19925;-67
2021/04/22 04:22:33;;;;;;;;;;;5.20;96.90;;;;;;5018759;28;19923;-68
2021/04/22 04:24:58;;;;;;;;;;;5.30;97.00;;;;;;5015465;28;20468;-67
2021/04/22 04:27:24;;;;;;;;;;;5.30;97.20;;;;;;5019078;28;19932;-69
2021/04/22 04:29:49;;;;;;;;;;;5.20;97.00;;;;;;4999297;28;19917;-68
2021/04/22 04:32:15;;;;;;;;;;;5.10;96.90;;;;;;5019867;28;19920;-68
2021/04/22 04:34:40;;;;;;;;;;;5.10;97.00;;;;;;5017900;28;19914;-69
2021/04/22 04:37:06;;;;;;;;;;;5.00;97.00;;;;;;5012014;28;20505;-68
2021/04/22 04:39:31;;;;;;;;;;;4.80;97.00;;;;;;5018156;28;20378;-68
2021/04/22 04:41:57;;;;;;;;;;;4.70;96.60;;;;;;5020873;28;20008;-69
2021/04/22 04:44:23;;;;;;;;;;;4.60;96.80;;;;;;5016535;28;19928;-68
2021/04/22 04:46:48;;;;;;;;;;;4.70;97.00;;;;;;5015662;28;19914;-68
2021/04/22 04:49:14;;;;;;;;;;;4.70;97.00;;;;;;5017440;28;19920;-68
2021/04/22 04:51:40;;;;;;;;;;;4.60;96.90;;;;;;5015179;28;19913;-68
2021/04/22 04:54:06;;;;;;;;;;;4.50;96.90;;;;;;5018297;28;20300;-68
2021/04/22 04:56:31;;;;;;;;;;;4.50;96.90;;;;;;5020966;28;19957;-68
2021/04/22 04:58:57;;;;;;;;;;;4.60;97.10;;;;;;5019545;28;19964;-68
2021/04/22 05:01:23;;;;;;;;;;;4.60;96.90;;;;;;5019502;28;19913;-67
2021/04/22 05:03:48;;;;;;;;;;;4.70;97.10;;;;;;5024038;28;20285;-68
2021/04/22 05:06:15;;;;;;;;;;;4.70;97.10;;;;;;5021142;28;20242;-69
2021/04/22 05:08:40;;;;;;;;;;;4.80;97.20;;;;;;5015511;28;19914;-69
2021/04/22 05:11:06;;;;;;;;;;;4.90;97.10;;;;;;5015653;28;19960;-68
2021/04/22 05:13:32;;;;;;;;;;;5.00;97.30;;;;;;5034452;28;20266;-69
2021/04/22 05:15:58;;;;;;;;;;;4.90;97.10;;;;;;5033719;28;20218;-69
2021/04/22 05:18:24;;;;;;;;;;;4.90;97.20;;;;;;5034392;28;19917;-69
2021/04/22 05:20:51;;;;;;;;;;;5.00;97.20;;;;;;5033697;28;19924;-68
2021/04/22 05:23:17;;;;;;;;;;;5.00;97.20;;;;;;5032873;28;19959;-68
2021/04/22 05:25:42;;;;;;;;;;;5.10;97.20;;;;;;5035335;28;20265;-68
2021/04/22 05:28:08;;;;;;;;;;;5.20;97.30;;;;;;5014260;28;19929;-68
2021/04/22 05:30:33;;;;;;;;;;;5.40;97.40;;;;;;5031143;28;19913;-68
2021/04/22 05:32:59;;;;;;;;;;;5.50;97.10;;;;;;5033574;28;19920;-69
2021/04/22 05:35:25;;;;;;;;;;;5.60;97.20;;;;;;5033982;28;20191;-68
2021/04/22 05:37:50;;;;;;;;;;;5.80;97.20;;;;;;5032727;28;19913;-69
2021/04/22 05:40:16;;;;;;;;;;;6.10;97.50;;;;;;5036326;28;19914;-68
2021/04/22 05:42:42;;;;;;;;;;;6.10;97.50;;;;;;5020227;28;19917;-69
2021/04/22 05:45:08;;;;;;;;;;;6.10;97.30;;;;;;5036847;28;19976;-69
2021/04/22 05:47:33;;;;;;;;;;;6.20;97.30;;;;;;5037561;28;19913;-69
2021/04/22 05:49:59;;;;;;;;;;;6.30;97.20;;;;;;5037465;28;20320;-69
2021/04/22 05:52:24;;;;;;;;;;;6.50;97.20;;;;;;5026933;28;19923;-68
2021/04/22 05:54:50;;;;;;;;;;;6.50;97.00;;;;;;5038487;28;19947;-69
2021/04/22 05:57:16;;;;;;;;;;;6.70;96.80;;;;;;5037513;28;19913;-69
2021/04/22 05:59:41;;;;;;;;;;;6.80;96.80;;;;;;5036293;28;19920;-69
2021/04/22 06:02:07;;;;;;;;;;;6.90;96.90;;;;;;5035922;28;19961;-69
2021/04/22 06:04:33;;;;;;;;;;;7.10;96.60;;;;;;5037319;28;20299;-69
2021/04/22 06:06:58;;;;;;;;;;;7.40;96.30;;;;;;5018390;28;19963;-68
2021/04/22 06:09:25;;;;;;;;;;;7.50;95.90;;;;;;5036112;28;20333;-69
2021/04/22 06:11:50;;;;;;;;;;;7.60;95.50;;;;;;5037565;28;20005;-68
2021/04/22 06:14:16;;;;;;;;;;;7.70;95.40;;;;;;5036936;28;20004;-68
2021/04/22 06:16:42;;;;;;;;;;;7.70;95.30;;;;;;5037954;28;19909;-68
2021/04/22 06:19:08;;;;;;;;;;;7.70;95.50;;;;;;5035453;28;19924;-69
2021/04/22 06:21:33;;;;;;;;;;;7.60;95.70;;;;;;5020512;28;19913;-68
2021/04/22 06:23:59;;;;;;;;;;;7.50;95.70;;;;;;5036702;28;19909;-68
2021/04/22 06:26:24;;;;;;;;;;;7.40;96.00;;;;;;5020467;28;19909;-67
2021/04/22 06:28:50;;;;;;;;;;;7.50;96.20;;;;;;5020191;28;19984;-67
2021/04/22 06:31:16;;;;;;;;;;;7.70;95.90;;;;;;5037725;28;20000;-68
2021/04/22 06:33:41;;;;;;;;;;;7.70;95.60;;;;;;5037962;28;20210;-67
2021/04/22 06:36:07;;;;;;;;;;;7.90;95.60;;;;;;5036464;28;19913;-69
2021/04/22 06:38:33;;;;;;;;;;;7.70;95.30;;;;;;5036653;28;20187;-68
2021/04/22 06:40:58;;;;;;;;;;;7.70;95.70;;;;;;5037701;28;20265;-68
2021/04/22 06:43:24;;;;;;;;;;;7.50;95.90;;;;;;5035428;28;19917;-69
2021/04/22 06:45:49;;;;;;;;;;;7.40;96.40;;;;;;5035211;28;19925;-69
2021/04/22 06:48:16;;;;;;;;;;;7.50;96.60;;;;;;5037288;28;20320;-69
2021/04/22 06:50:41;;;;;;;;;;;7.50;96.10;;;;;;5022473;28;20200;-69
2021/04/22 06:53:07;;;;;;;;;;;7.50;96.00;;;;;;5015929;28;19944;-69
2021/04/22 06:55:33;;;;;;;;;;;7.50;96.20;;;;;;5037292;28;19917;-68
2021/04/22 06:57:59;;;;;;;;;;;7.40;96.40;;;;;;5037308;28;19910;-69
2021/04/22 07:00:26;;;;;;;;;;;7.40;96.50;;;;;;5038912;28;20307;-69
2021/04/22 07:02:51;;;;;;;;;;;7.50;96.90;;;;;;5037296;28;20213;-68
2021/04/22 07:05:17;;;;;;;;;;;7.50;96.20;;;;;;5035972;28;19913;-69
2021/04/22 07:07:43;;;;;;;;;;;7.50;96.30;;;;;;5036280;28;19913;-69
2021/04/22 07:10:09;;;;;;;;;;;7.70;96.80;;;;;;5036288;28;19948;-69
2021/04/22 07:12:34;;;;;;;;;;;7.90;96.70;;;;;;5035839;28;20229;-69
2021/04/22 07:15:00;;;;;;;;;;;8.00;96.60;;;;;;5032821;28;19917;-69
2021/04/22 07:17:26;;;;;;;;;;;8.00;95.90;;;;;;5036814;28;20289;-70
2021/04/22 07:19:54;;;;;;;;;;;8.20;96.50;;;;;;5037114;28;20855;-69
2021/04/22 07:22:19;;;;;;;;;;;8.30;95.90;;;;;;5035628;28;19921;-69
2021/04/22 07:24:45;;;;;;;;;;;8.30;96.10;;;;;;5035640;28;19920;-69
2021/04/22 07:27:10;;;;;;;;;;;8.40;95.60;;;;;;5036599;28;19914;-69
2021/04/22 07:29:39;;;;;;;;;;;8.30;95.90;;;;;;5036223;28;19920;-67
2021/04/22 07:32:05;;;;;;;;;;;8.50;95.70;;;;;;5036712;28;20310;-68
2021/04/22 07:34:30;;;;;;;;;;;8.70;95.00;;;;;;5036175;28;19926;-68
2021/04/22 07:36:56;;;;;;;;;;;8.60;94.90;;;;;;5035593;28;19909;-68
2021/04/22 07:39:21;;;;;;;;;;;8.60;95.20;;;;;;5036490;28;19928;-69
2021/04/22 07:41:47;;;;;;;;;;;8.50;95.10;;;;;;5036167;28;20213;-68
2021/04/22 07:44:12;;;;;;;;;;;8.80;95.20;;;;;;5035686;28;19956;-69
2021/04/22 07:46:38;;;;;;;;;;;8.90;94.60;;;;;;5030103;28;19913;-67
2021/04/22 07:49:06;;;;;;;;;;;9.20;94.30;;;;;;5030850;28;20217;-69
2021/04/22 07:51:31;;;;;;;;;;;9.30;94.00;;;;;;5036324;28;20256;-68
2021/04/22 07:53:57;;;;;;;;;;;9.60;92.50;;;;;;5034663;28;19997;-69
2021/04/22 07:56:22;;;;;;;;;;;9.70;92.30;;;;;;5036207;28;19913;-69
2021/04/22 07:58:48;;;;;;;;;;;9.80;92.50;;;;;;5019501;28;20051;-69
2021/04/22 08:01:13;;;;;;;;;;;9.90;90.50;;;;;;5016671;28;19961;-69
2021/04/22 08:03:41;;;;;;;;;;;9.60;90.90;;;;;;5029404;28;19920;-69
2021/04/22 08:06:07;;;;;;;;;;;9.50;91.90;;;;;;5031687;28;19961;-67
2021/04/22 08:08:33;;;;;;;;;;;9.20;92.60;;;;;;5033990;28;20254;-69
2021/04/22 08:10:59;;;;;;;;;;;9.10;92.70;;;;;;5035872;28;19967;-68
2021/04/22 08:13:24;;;;;;;;;;;8.80;93.40;;;;;;5033913;28;19917;-69
2021/04/22 08:15:52;;;;;;;;;;;8.90;93.70;;;;;;5036045;28;19998;-69
2021/04/22 08:18:18;;;;;;;;;;;9.10;93.00;;;;;;5031829;28;20217;-68
2021/04/22 08:20:45;;;;;;;;;;;9.30;93.40;;;;;;5027932;28;20298;-69
2021/04/22 08:23:11;;;;;;;;;;;9.50;92.60;;;;;;5034637;28;19971;-69
2021/04/22 08:25:39;;;;;;;;;;;9.70;92.30;;;;;;5028018;28;19914;-69
2021/04/22 08:28:06;;;;;;;;;;;9.90;91.20;;;;;;5016141;28;19913;-68
2021/04/22 08:30:33;;;;;;;;;;;10.00;91.10;;;;;;5018707;28;19925;-69
2021/04/22 08:33:00;;;;;;;;;;;10.10;90.70;;;;;;5023831;28;19964;-69
2021/04/22 08:35:26;;;;;;;;;;;9.90;91.40;;;;;;5034122;28;20000;-69
2021/04/22 08:37:51;;;;;;;;;;;9.60;91.70;;;;;;5034609;28;20007;-69
2021/04/22 08:40:17;;;;;;;;;;;9.60;92.00;;;;;;5032168;28;19914;-69
2021/04/22 08:42:43;;;;;;;;;;;9.60;92.30;;;;;;5019772;28;19920;-69
2021/04/22 08:45:10;;;;;;;;;;;9.70;91.80;;;;;;5016881;28;19917;-69
2021/04/22 08:47:35;;;;;;;;;;;9.60;91.30;;;;;;5016834;28;19910;-68
2021/04/22 08:50:03;;;;;;;;;;;9.70;91.60;;;;;;5017936;28;19909;-69
2021/04/22 08:52:28;;;;;;;;;;;9.90;91.20;;;;;;5026349;28;19913;-69
2021/04/22 08:54:54;;;;;;;;;;;9.90;90.50;;;;;;5030194;28;20217;-69
2021/04/22 08:57:20;;;;;;;;;;;10.10;90.70;;;;;;5034958;28;19928;-69
2021/04/22 08:59:47;;;;;;;;;;;10.00;90.00;;;;;;5034658;28;19928;-68
2021/04/22 09:02:12;;;;;;;;;;;10.20;90.00;;;;;;5035174;28;19921;-69
2021/04/22 09:04:38;;;;;;;;;;;10.50;88.50;;;;;;5034718;28;19939;-68
2021/04/22 09:07:06;;;;;;;;;;;10.50;88.50;;;;;;5029728;28;19913;-69
2021/04/22 09:09:32;;;;;;;;;;;10.60;87.60;;;;;;5035075;28;19916;-69
2021/04/22 09:12:00;;;;;;;;;;;10.70;87.50;;;;;;5035384;28;19909;-68
2021/04/22 09:14:25;;;;;;;;;;;11.00;85.70;;;;;;5035810;28;20378;-69
2021/04/22 09:16:51;;;;;;;;;;;11.20;85.20;;;;;;5039465;28;19909;-70
2021/04/22 09:19:18;;;;;;;;;;;11.40;84.10;;;;;;5039068;28;19909;-69
2021/04/22 09:21:49;;;;;;;;;;;11.10;85.30;;;;;;5038300;28;19913;-69
2021/04/22 09:24:17;;;;;;;;;;;11.10;84.90;;;;;;5021440;28;20236;-69
2021/04/22 09:26:42;;;;;;;;;;;11.10;85.70;;;;;;5038774;28;20009;-69
2021/04/22 09:29:09;;;;;;;;;;;11.40;84.30;;;;;;5039306;28;19944;-69
2021/04/22 09:31:35;;;;;;;;;;;11.50;84.00;;;;;;5021387;28;19937;-69
2021/04/22 09:34:01;;;;;;;;;;;11.40;83.80;;;;;;5049831;28;19921;-69
2021/04/22 09:36:36;;;;;;;;;;;11.20;84.60;;;;;;5046326;28;20331;-69
2021/04/22 09:39:02;;;;;;;;;;;11.00;85.30;;;;;;5019994;28;19943;-69
2021/04/22 09:41:28;;;;;;;;;;;11.10;85.20;;;;;;5038929;28;19913;-68
2021/04/22 09:44:02;;;;;;;;;;;11.30;85.10;;;;;;5037840;28;19962;-67
2021/04/22 09:46:27;;;;;;;;;;;11.40;84.60;;;;;;5038813;28;19916;-67
2021/04/22 09:48:53;;;;;;;;;;;11.50;84.10;;;;;;5038865;28;19909;-67
2021/04/22 09:51:28;;;;;;;;;;;11.70;83.90;;;;;;5038010;28;19998;-67
2021/04/22 09:54:11;;;;;;;;;;;11.70;83.00;;;;;;5037410;28;19939;-69
2021/04/22 09:56:39;;;;;;;;;;;11.40;83.90;;;;;;5036592;28;19913;-69
2021/04/22 09:59:06;;;;;;;;;;;11.30;84.70;;;;;;5038543;28;19955;-69
2021/04/22 10:01:33;;;;;;;;;;;11.30;85.00;;;;;;5037899;28;19963;-69
2021/04/22 10:03:58;;;;;;;;;;;11.20;85.80;;;;;;5038272;28;19916;-69
2021/04/22 10:06:24;;;;;;;;;;;11.30;84.60;;;;;;5038372;28;20210;-69
2021/04/22 10:08:49;;;;;;;;;;;11.50;85.30;;;;;;5037304;28;20043;-69
2021/04/22 10:11:15;;;;;;;;;;;11.70;83.90;;;;;;5037070;28;20238;-69
2021/04/22 10:13:42;;;;;;;;;;;12.20;82.20;;;;;;5036904;28;20284;-69
2021/04/22 10:16:07;;;;;;;;;;;12.60;81.60;;;;;;5038220;28;19909;-69
2021/04/22 10:18:43;;;;;;;;;;;12.30;81.10;;;;;;5038039;28;20328;-69
2021/04/22 10:21:09;;;;;;;;;;;12.50;81.60;;;;;;5038011;28;19909;-69
2021/04/22 10:23:35;;;;;;;;;;;12.70;80.30;;;;;;5019142;28;20294;-68
2021/04/22 10:26:01;;;;;;;;;;;12.90;78.90;;;;;;5034952;28;19913;-69
2021/04/22 10:28:26;;;;;;;;;;;12.90;79.10;;;;;;5037470;28;20221;-69
2021/04/22 10:30:55;;;;;;;;;;;13.00;79.10;;;;;;5037916;28;19963;-69
2021/04/22 10:33:21;;;;;;;;;;;13.30;79.30;;;;;;5037938;28;19913;-69
2021/04/22 10:35:46;;;;;;;;;;;13.60;79.00;;;;;;5037631;28;20004;-68
2021/04/22 10:38:12;;;;;;;;;;;13.40;77.10;;;;;;5036818;28;19913;-69
2021/04/22 10:40:42;;;;;;;;;;;13.20;78.10;;;;;;5036647;28;20265;-69
2021/04/22 10:43:14;;;;;;;;;;;13.10;77.40;;;;;;5037159;28;19917;-69
2021/04/22 10:45:40;;;;;;;;;;;12.40;79.40;;;;;;5037540;28;19913;-69
2021/04/22 10:48:06;;;;;;;;;;;12.90;79.30;;;;;;5037668;28;19913;-68
2021/04/22 10:50:35;;;;;;;;;;;12.90;78.60;;;;;;5036559;28;19913;-67
2021/04/22 10:53:02;;;;;;;;;;;12.60;79.10;;;;;;5036632;28;20277;-68
2021/04/22 10:55:29;;;;;;;;;;;12.30;80.50;;;;;;5036710;28;19917;-70
2021/04/22 10:57:56;;;;;;;;;;;12.30;80.40;;;;;;5037385;28;19917;-68
2021/04/22 11:00:24;;;;;;;;;;;12.60;79.60;;;;;;5037427;28;19909;-68
2021/04/22 11:02:54;;;;;;;;;;;13.10;78.30;;;;;;5037462;28;20367;-68
2021/04/22 11:05:19;;;;;;;;;;;12.80;77.90;;;;;;5037555;28;19917;-69
2021/04/22 11:07:58;;;;;;;;;;;12.80;78.50;;;;;;5035510;28;19913;-68
2021/04/22 11:10:40;;;;;;;;;;;12.80;78.80;;;;;;5037384;28;19998;-68
2021/04/22 11:13:14;;;;;;;;;;;13.60;77.30;;;;;;5037205;28;19935;-68
2021/04/22 11:15:41;;;;;;;;;;;14.50;74.50;;;;;;5036972;28;19964;-68
2021/04/22 11:18:10;;;;;;;;;;;14.80;74.20;;;;;;5036908;28;19913;-68
2021/04/22 11:20:42;;;;;;;;;;;14.60;73.00;;;;;;5019593;28;19909;-67
2021/04/22 11:23:12;;;;;;;;;;;14.40;74.30;;;;;;5033073;28;19924;-68
2021/04/22 11:25:48;;;;;;;;;;;15.20;73.30;;;;;;5023954;28;19918;-68
2021/04/22 11:28:16;;;;;;;;;;;16.20;72.20;;;;;;5020467;28;19940;-68
2021/04/22 11:30:43;;;;;;;;;;;16.60;69.40;;;;;;5017473;28;19913;-68
2021/04/22 11:33:08;;;;;;;;;;;16.00;69.40;;;;;;5010034;28;20338;-67
2021/04/22 11:35:35;;;;;;;;;;;15.50;71.00;;;;;;5017100;28;19921;-67
2021/04/22 11:38:08;;;;;;;;;;;16.10;69.50;;;;;;5027282;28;19921;-67
2021/04/22 11:40:42;;;;;;;;;;;16.60;68.50;;;;;;5035743;28;19940;-68
2021/04/22 11:43:19;;;;;;;;;;;16.70;68.40;;;;;;5035531;28;19921;-67
2021/04/22 11:45:51;;;;;;;;;;;16.30;70.00;;;;;;5036511;28;20310;-68
2021/04/22 11:48:17;;;;;;;;;;;16.70;67.50;;;;;;5022201;28;19914;-68
2021/04/22 11:50:44;;;;;;;;;;;17.20;66.70;;;;;;5016918;28;19929;-68
2021/04/22 11:53:10;;;;;;;;;;;16.90;67.00;;;;;;5020548;28;19971;-68
2021/04/22 11:55:37;;;;;;;;;;;16.70;65.30;;;;;;5035753;28;20313;-68
2021/04/22 11:58:11;;;;;;;;;;;16.70;67.00;;;;;;5035629;28;19913;-67
2021/04/22 12:00:46;;;;;;;;;;;17.10;66.70;;;;;;5035543;28;19920;-67
2021/04/22 12:03:13;;;;;;;;;;;17.40;65.80;;;;;;5036027;28;19921;-68
2021/04/22 12:05:41;;;;;;;;;;;17.50;65.60;;;;;;5036165;28;20221;-68
2021/04/22 12:08:11;;;;;;;;;;;17.20;65.20;;;;;;5034463;28;19960;-68
2021/04/22 12:10:37;;;;;;;;;;;17.00;66.20;;;;;;5036223;28;19913;-68
2021/04/22 12:13:08;;;;;;;;;;;17.30;65.30;;;;;;5035739;28;20194;-67
2021/04/22 12:15:34;;;;;;;;;;;17.40;66.20;;;;;;5035892;28;19909;-68
2021/04/22 12:18:00;;;;;;;;;;;17.80;66.10;;;;;;5035672;28;19917;-67
2021/04/22 12:20:25;;;;;;;;;;;17.80;63.10;;;;;;5035990;28;19916;-67
2021/04/22 12:22:51;;;;;;;;;;;17.30;64.80;;;;;;5034182;28;19921;-68
2021/04/22 12:25:21;;;;;;;;;;;17.10;65.50;;;;;;5033455;28;19913;-67
2021/04/22 12:27:50;;;;;;;;;;;16.10;67.00;;;;;;5033668;28;19992;-67
2021/04/22 12:30:17;;;;;;;;;;;15.70;68.60;;;;;;5033884;28;20008;-67
2021/04/22 12:32:49;;;;;;;;;;;15.70;67.60;;;;;;5030728;28;19921;-68
2021/04/22 12:35:19;;;;;;;;;;;14.80;68.20;;;;;;5027736;28;19921;-67
2021/04/22 12:37:45;;;;;;;;;;;14.80;70.70;;;;;;5028798;28;19952;-66
2021/04/22 12:40:11;;;;;;;;;;;15.30;70.60;;;;;;5031791;28;19957;-66
2021/04/22 12:42:36;;;;;;;;;;;16.00;70.30;;;;;;5037800;28;19917;-66
2021/04/22 12:45:10;;;;;;;;;;;16.10;68.40;;;;;;5036553;28;20336;-66
2021/04/22 12:47:40;;;;;;;;;;;16.10;68.40;;;;;;5044843;28;20332;-67
2021/04/22 12:50:10;;;;;;;;;;;15.80;67.40;;;;;;5025725;28;20012;-67
2021/04/22 12:52:36;;;;;;;;;;;15.40;68.50;;;;;;5024956;28;19932;-68
2021/04/22 12:55:05;;;;;;;;;;;15.30;69.20;;;;;;5021163;28;19921;-69
2021/04/22 12:57:31;;;;;;;;;;;16.20;68.20;;;;;;5020630;28;19980;-68
2021/04/22 12:59:57;;;;;;;;;;;16.30;65.40;;;;;;5017378;28;19921;-70
2021/04/22 13:02:22;;;;;;;;;;;16.40;65.80;;;;;;5019908;28;20254;-71
2021/04/22 13:04:54;;;;;;;;;;;16.00;66.00;;;;;;5023879;28;19914;-70
2021/04/22 13:07:30;;;;;;;;;;;16.10;67.20;;;;;;5017837;28;20357;-70
2021/04/22 13:09:55;;;;;;;;;;;16.60;65.00;;;;;;5005453;28;19921;-70
2021/04/22 13:12:24;;;;;;;;;;;17.30;62.50;;;;;;5020390;28;19927;-70
2021/04/22 13:14:50;;;;;;;;;;;17.40;62.40;;;;;;5020793;28;19975;-68
2021/04/22 13:17:15;;;;;;;;;;;17.40;62.00;;;;;;5020686;28;20210;-70
2021/04/22 13:19:42;;;;;;;;;;;16.50;63.70;;;;;;5020077;28;19982;-69
2021/04/22 13:22:11;;;;;;;;;;;16.10;65.00;;;;;;5018760;28;19972;-69
2021/04/22 13:24:39;;;;;;;;;;;16.80;64.30;;;;;;5021371;28;19914;-70
2021/04/22 13:27:06;;;;;;;;;;;17.40;63.50;;;;;;5022142;28;19921;-69
2021/04/22 13:29:32;;;;;;;;;;;17.20;61.80;;;;;;5018014;28;20019;-70
2021/04/22 13:31:59;;;;;;;;;;;16.90;62.20;;;;;;5018354;28;20015;-70
2021/04/22 13:34:25;;;;;;;;;;;17.10;61.90;;;;;;5021645;28;19944;-70
2021/04/22 13:36:52;;;;;;;;;;;17.60;60.30;;;;;;5017622;28;19914;-70
2021/04/22 13:39:27;;;;;;;;;;;17.40;58.80;;;;;;5018512;28;19944;-70
2021/04/22 13:41:53;;;;;;;;;;;17.30;57.50;;;;;;5023150;28;19979;-70
2021/04/22 13:44:19;;;;;;;;;;;16.90;56.60;;;;;;5022023;28;20021;-70
2021/04/22 13:46:52;;;;;;;;;;;17.60;54.00;;;;;;5020403;28;19917;-70
2021/04/22 13:49:20;;;;;;;;;;;18.00;52.70;;;;;;5027441;28;19921;-70
2021/04/22 13:51:46;;;;;;;;;;;17.60;50.10;;;;;;5016169;28;19920;-70
2021/04/22 13:54:13;;;;;;;;;;;17.00;52.20;;;;;;5016328;28;19921;-70
2021/04/22 13:56:38;;;;;;;;;;;16.60;54.20;;;;;;5019248;28;19921;-70
2021/04/22 13:59:12;;;;;;;;;;;17.00;55.30;;;;;;5018315;28;20435;-71
2021/04/22 14:01:40;;;;;;;;;;;17.20;53.70;;;;;;5019244;28;19941;-70
2021/04/22 14:04:07;;;;;;;;;;;17.30;53.20;;;;;;5022765;28;19970;-69
2021/04/22 14:06:32;;;;;;;;;;;17.00;52.80;;;;;;5014136;28;19913;-70
2021/04/22 14:08:58;;;;;;;;;;;16.50;52.10;;;;;;5030968;28;20023;-71
2021/04/22 14:11:24;;;;;;;;;;;16.60;53.20;;;;;;5037241;28;19914;-70
2021/04/22 14:13:50;;;;;;;;;;;17.60;53.90;;;;;;5026210;28;20013;-70
2021/04/22 14:16:17;;;;;;;;;;;17.80;49.10;;;;;;5018315;28;19909;-70
2021/04/22 14:18:43;;;;;;;;;;;17.90;51.00;;;;;;5027843;28;19920;-70
2021/04/22 14:21:08;;;;;;;;;;;18.10;50.60;;;;;;5032430;28;19921;-71
2021/04/22 14:23:34;;;;;;;;;;;18.30;48.40;;;;;;5032003;28;19935;-70